createdAt,value
2018-04-09T00:01:48.319Z,15.50
2018-04-09T00:04:23.290Z,15.50
2018-04-09T00:06:58.326Z,15.40
2018-04-09T00:09:33.062Z,15.40
2018-04-09T00:12:08.138Z,15.30
2018-04-09T00:14:42.975Z,15.30
2018-04-09T00:17:17.664Z,15.30
2018-04-09T00:19:53.226Z,15.20
2018-04-09T00:22:28.160Z,15.20
2018-04-09T00:25:02.981Z,15.10
2018-04-09T00:27:37.615Z,15.10
2018-04-09T00:30:12.400Z,15.00
2018-04-09T00:32:47.161Z,15.00
2018-04-09T00:35:21.910Z,14.90
2018-04-09T00:37:56.617Z,14.90
2018-04-09T00:40:31.997Z,14.90
2018-04-09T00:43:07.079Z,14.80
2018-04-09T00:45:41.892Z,14.90
2018-04-09T00:48:16.363Z,14.80
2018-04-09T00:50:51.232Z,14.80
2018-04-09T00:53:36.930Z,14.80
2018-04-09T00:56:11.564Z,14.80
2018-04-09T00:58:47.209Z,14.80
2018-04-09T01:01:21.940Z,14.70
2018-04-09T01:03:56.944Z,14.70
2018-04-09T01:06:31.496Z,14.60
2018-04-09T01:09:07.122Z,14.60
2018-04-09T01:11:42.085Z,14.50
2018-04-09T01:14:16.903Z,14.50
2018-04-09T01:16:51.569Z,14.40
2018-04-09T01:19:26.984Z,14.30
2018-04-09T01:22:01.881Z,14.30
2018-04-09T01:24:36.748Z,14.30
2018-04-09T01:27:11.494Z,14.30
2018-04-09T01:29:46.373Z,14.20
2018-04-09T01:32:21.784Z,14.10
2018-04-09T01:34:57.576Z,14.10
2018-04-09T01:37:32.428Z,14.10
2018-04-09T01:40:07.906Z,14.10
2018-04-09T01:42:42.764Z,14.10
2018-04-09T01:45:17.458Z,14.10
2018-04-09T01:47:53.078Z,14.00
2018-04-09T01:50:28.488Z,14.00
2018-04-09T01:53:03.185Z,14.00
2018-04-09T01:55:37.808Z,14.00
2018-04-09T01:58:12.994Z,13.90
2018-04-09T02:00:47.805Z,13.90
2018-04-09T02:03:22.713Z,13.90
2018-04-09T02:05:57.264Z,13.90
2018-04-09T02:08:31.984Z,14.00
2018-04-09T02:11:06.892Z,14.00
2018-04-09T02:13:41.517Z,14.00
2018-04-09T02:16:16.132Z,13.90
2018-04-09T02:18:51.205Z,13.90
2018-04-09T02:21:26.074Z,14.00
2018-04-09T02:24:00.708Z,14.00
2018-04-09T02:26:35.279Z,14.00
2018-04-09T02:29:09.968Z,14.00
2018-04-09T02:31:44.584Z,14.00
2018-04-09T02:34:19.367Z,14.00
2018-04-09T02:36:54.204Z,14.00
2018-04-09T02:39:29.023Z,13.90
2018-04-09T02:42:03.852Z,13.90
2018-04-09T02:44:38.623Z,13.90
2018-04-09T02:47:13.488Z,13.90
2018-04-09T02:49:48.175Z,13.90
2018-04-09T02:52:23.126Z,14.00
2018-04-09T02:54:58.611Z,13.90
2018-04-09T02:57:33.531Z,13.90
2018-04-09T03:00:09.234Z,13.90
2018-04-09T03:02:43.823Z,13.90
2018-04-09T03:05:19.156Z,14.00
2018-04-09T03:07:53.867Z,14.00
2018-04-09T03:10:29.392Z,14.00
2018-04-09T03:13:04.375Z,14.00
2018-04-09T03:15:39.014Z,14.00
2018-04-09T03:18:13.655Z,14.00
2018-04-09T03:20:48.429Z,13.90
2018-04-09T03:23:23.403Z,13.80
2018-04-09T03:25:58.220Z,13.60
2018-04-09T03:28:33.054Z,13.50
2018-04-09T03:31:07.933Z,13.50
2018-04-09T03:33:42.686Z,13.40
2018-04-09T03:36:18.194Z,13.40
2018-04-09T03:38:52.823Z,13.30
2018-04-09T03:41:27.611Z,13.30
2018-04-09T03:44:03.340Z,13.30
2018-04-09T03:46:37.932Z,13.20
2018-04-09T03:49:12.739Z,13.20
2018-04-09T03:51:47.677Z,13.20
2018-04-09T03:54:23.144Z,13.10
2018-04-09T03:56:57.864Z,13.10
2018-04-09T03:59:32.489Z,13.10
2018-04-09T04:02:07.282Z,13.10
2018-04-09T04:04:42.093Z,13.10
2018-04-09T04:07:16.412Z,13.20
2018-04-09T04:09:51.145Z,13.20
2018-04-09T04:12:25.836Z,13.30
2018-04-09T04:15:00.664Z,13.30
2018-04-09T04:17:46.393Z,13.40
2018-04-09T04:20:32.507Z,13.40
2018-04-09T04:23:07.256Z,13.50
2018-04-09T04:25:42.850Z,13.60
2018-04-09T04:28:18.196Z,13.60
2018-04-09T04:30:54.542Z,13.60
2018-04-09T04:33:30.277Z,13.70
2018-04-09T04:36:04.806Z,13.70
2018-04-09T04:38:39.492Z,13.70
2018-04-09T04:41:14.072Z,13.70
2018-04-09T04:43:48.822Z,13.80
2018-04-09T04:46:23.441Z,13.80
2018-04-09T04:48:58.232Z,13.80
2018-04-09T04:51:32.942Z,13.80
2018-04-09T04:54:07.686Z,13.80
2018-04-09T04:56:42.392Z,13.80
2018-04-09T04:59:17.902Z,13.80
2018-04-09T05:01:52.536Z,13.70
2018-04-09T05:04:27.495Z,13.70
2018-04-09T05:07:02.249Z,13.70
2018-04-09T05:09:37.688Z,13.70
2018-04-09T05:12:12.521Z,13.70
2018-04-09T05:14:47.473Z,13.70
2018-04-09T05:17:22.115Z,13.70
2018-04-09T05:19:57.576Z,13.80
2018-04-09T05:22:33.272Z,13.90
2018-04-09T05:25:07.991Z,13.80
2018-04-09T05:27:42.571Z,13.90
2018-04-09T05:30:17.315Z,14.00
2018-04-09T05:32:51.632Z,14.10
2018-04-09T05:35:26.138Z,14.10
2018-04-09T05:38:00.730Z,14.10
2018-04-09T05:40:35.405Z,14.10
2018-04-09T05:43:11.559Z,14.10
2018-04-09T05:45:46.290Z,14.10
2018-04-09T05:48:21.066Z,14.10
2018-04-09T05:50:55.696Z,14.20
2018-04-09T05:53:30.621Z,14.20
2018-04-09T05:56:05.319Z,14.30
2018-04-09T05:58:40.724Z,14.40
2018-04-09T06:01:15.231Z,14.40
2018-04-09T06:03:50.003Z,14.40
2018-04-09T06:06:24.788Z,14.40
2018-04-09T06:08:59.550Z,14.40
2018-04-09T06:11:34.070Z,14.50
2018-04-09T06:14:08.813Z,14.60
2018-04-09T06:16:43.613Z,14.60
2018-04-09T06:19:18.369Z,14.60
2018-04-09T06:21:52.959Z,14.70
2018-04-09T06:24:27.736Z,14.70
2018-04-09T06:27:02.529Z,14.80
2018-04-09T06:29:38.044Z,14.80
2018-04-09T06:32:12.671Z,14.80
2018-04-09T06:34:48.348Z,14.90
2018-04-09T06:37:23.999Z,14.90
2018-04-09T06:39:58.406Z,14.80
2018-04-09T06:42:32.699Z,14.90
2018-04-09T06:45:07.862Z,14.90
2018-04-09T06:47:42.237Z,14.90
2018-04-09T06:50:17.589Z,15.00
2018-04-09T06:52:53.060Z,15.20
2018-04-09T06:55:27.708Z,15.10
2018-04-09T06:58:03.264Z,15.10
2018-04-09T07:00:37.911Z,15.10
2018-04-09T07:03:12.666Z,15.10
2018-04-09T07:05:47.219Z,15.10
2018-04-09T07:08:21.745Z,15.20
2018-04-09T07:10:56.381Z,15.20
2018-04-09T07:13:30.955Z,15.20
2018-04-09T07:16:05.541Z,15.20
2018-04-09T07:18:39.802Z,15.30
2018-04-09T07:21:14.519Z,15.40
2018-04-09T07:23:49.207Z,15.40
2018-04-09T07:26:23.904Z,15.30
2018-04-09T07:28:58.678Z,15.30
2018-04-09T07:31:33.571Z,15.30
2018-04-09T07:34:08.494Z,15.30
2018-04-09T07:36:43.261Z,15.30
2018-04-09T07:39:18.064Z,15.40
2018-04-09T07:41:52.716Z,15.50
2018-04-09T07:44:27.492Z,15.60
2018-04-09T07:47:02.333Z,15.80
2018-04-09T07:49:37.618Z,15.90
2018-04-09T07:52:13.362Z,16.00
2018-04-09T07:54:48.191Z,16.00
2018-04-09T07:57:23.123Z,16.10
2018-04-09T07:59:58.023Z,16.20
2018-04-09T08:02:32.622Z,16.30
2018-04-09T08:05:07.239Z,16.40
2018-04-09T08:07:41.862Z,16.40
2018-04-09T08:10:16.604Z,16.50
2018-04-09T08:12:51.499Z,16.50
2018-04-09T08:15:26.168Z,16.50
2018-04-09T08:18:01.478Z,16.60
2018-04-09T08:20:36.403Z,16.60
2018-04-09T08:23:11.318Z,16.70
2018-04-09T08:25:46.900Z,16.80
2018-04-09T08:28:21.787Z,16.80
2018-04-09T08:30:56.513Z,16.80
2018-04-09T08:33:31.839Z,17.00
2018-04-09T08:36:06.412Z,17.00
2018-04-09T08:38:41.468Z,17.00
2018-04-09T08:41:15.819Z,17.10
2018-04-09T08:43:50.500Z,17.20
2018-04-09T08:46:25.734Z,17.50
2018-04-09T08:49:01.201Z,17.50
2018-04-09T08:51:35.842Z,17.50
2018-04-09T08:54:10.459Z,17.50
2018-04-09T08:56:45.033Z,17.50
2018-04-09T08:59:19.799Z,17.50
2018-04-09T09:01:54.197Z,17.70
2018-04-09T09:04:28.941Z,17.70
2018-04-09T09:07:03.769Z,17.80
2018-04-09T09:09:38.479Z,17.80
2018-04-09T09:12:13.105Z,17.90
2018-04-09T09:14:47.732Z,18.00
2018-04-09T09:17:22.405Z,18.00
2018-04-09T09:19:57.187Z,18.00
2018-04-09T09:22:32.563Z,17.90
2018-04-09T09:25:07.884Z,18.00
2018-04-09T09:27:42.283Z,18.00
2018-04-09T09:30:16.887Z,18.00
2018-04-09T09:32:52.170Z,18.20
2018-04-09T09:35:26.823Z,18.10
2018-04-09T09:38:01.543Z,18.30
2018-04-09T09:40:36.298Z,18.40
2018-04-09T09:43:11.031Z,18.50
2018-04-09T09:45:45.958Z,18.70
2018-04-09T09:48:20.594Z,19.00
2018-04-09T09:50:55.279Z,19.10
2018-04-09T09:53:29.839Z,19.20
2018-04-09T09:56:05.377Z,19.10
2018-04-09T09:58:40.874Z,19.20
2018-04-09T10:01:15.415Z,19.10
2018-04-09T10:03:50.168Z,19.10
2018-04-09T10:06:24.831Z,19.10
2018-04-09T10:08:59.514Z,19.20
2018-04-09T10:11:34.141Z,19.30
2018-04-09T10:14:08.709Z,19.40
2018-04-09T10:16:43.522Z,19.30
2018-04-09T10:19:18.243Z,19.50
2018-04-09T10:21:52.805Z,19.40
2018-04-09T10:24:27.428Z,19.40
2018-04-09T10:27:02.971Z,19.10
2018-04-09T10:29:37.769Z,19.10
2018-04-09T10:32:12.624Z,19.10
2018-04-09T10:34:47.988Z,19.00
2018-04-09T10:37:22.604Z,19.00
2018-04-09T10:39:57.263Z,19.10
2018-04-09T10:42:31.853Z,19.10
2018-04-09T10:45:06.971Z,19.20
2018-04-09T10:47:41.508Z,19.40
2018-04-09T10:50:16.079Z,19.60
2018-04-09T10:52:50.884Z,19.70
2018-04-09T10:55:26.610Z,20.00
2018-04-09T10:58:01.312Z,20.00
2018-04-09T11:00:36.068Z,20.20
2018-04-09T11:03:10.691Z,20.50
2018-04-09T11:05:45.494Z,20.50
2018-04-09T11:08:20.055Z,20.50
2018-04-09T11:10:54.684Z,20.50
2018-04-09T11:13:29.335Z,20.40
2018-04-09T11:16:04.132Z,20.40
2018-04-09T11:18:38.892Z,20.40
2018-04-09T11:21:13.694Z,20.50
2018-04-09T11:23:48.480Z,20.50
2018-04-09T11:26:23.584Z,20.50
2018-04-09T11:28:59.205Z,20.50
2018-04-09T11:31:34.725Z,20.80
2018-04-09T11:34:09.547Z,20.80
2018-04-09T11:36:44.400Z,21.00
2018-04-09T11:39:19.125Z,21.10
2018-04-09T11:41:53.700Z,21.10
2018-04-09T11:44:28.401Z,21.30
2018-04-09T11:47:03.147Z,21.40
2018-04-09T11:49:38.484Z,21.30
2018-04-09T11:52:13.169Z,21.30
2018-04-09T11:54:48.713Z,21.10
2018-04-09T11:57:21.288Z,21.00
2018-04-09T11:59:52.393Z,20.90
2018-04-09T12:02:21.606Z,20.90
2018-04-09T12:04:51.005Z,20.90
2018-04-09T12:07:20.157Z,20.90
2018-04-09T12:09:49.422Z,20.90
2018-04-09T12:12:18.906Z,20.90
2018-04-09T12:14:47.829Z,20.90
2018-04-09T12:17:17.217Z,21.00
2018-04-09T12:19:46.282Z,21.10
2018-04-09T12:22:16.724Z,21.20
2018-04-09T12:24:45.910Z,21.40
2018-04-09T12:27:14.966Z,21.60
2018-04-09T12:29:44.157Z,21.70
2018-04-09T12:32:13.283Z,21.70
2018-04-09T12:34:42.350Z,21.60
2018-04-09T12:37:11.381Z,21.70
2018-04-09T12:39:40.329Z,21.70
2018-04-09T12:42:09.275Z,21.60
2018-04-09T12:44:40.870Z,21.60
2018-04-09T12:47:09.993Z,21.60
2018-04-09T12:49:39.904Z,21.60
2018-04-09T12:52:08.981Z,21.70
2018-04-09T12:54:38.039Z,21.80
2018-04-09T12:57:07.302Z,21.80
2018-04-09T12:59:36.413Z,21.80
2018-04-09T13:02:05.462Z,21.90
2018-04-09T13:04:34.545Z,21.90
2018-04-09T13:07:05.091Z,21.90
2018-04-09T13:09:35.685Z,21.90
2018-04-09T13:12:05.575Z,21.90
2018-04-09T13:14:35.430Z,21.90
2018-04-09T13:17:04.502Z,21.90
2018-04-09T13:19:34.209Z,21.80
2018-04-09T13:22:03.330Z,21.90
2018-04-09T13:24:32.458Z,21.80
2018-04-09T13:27:01.491Z,21.80
2018-04-09T13:29:31.529Z,21.70
2018-04-09T13:32:01.254Z,21.70
2018-04-09T13:34:31.334Z,21.50
2018-04-09T13:37:00.380Z,21.50
2018-04-09T13:39:30.226Z,21.40
2018-04-09T13:41:59.273Z,21.30
2018-04-09T13:44:28.482Z,21.40
2018-04-09T13:46:58.247Z,21.40
2018-04-09T13:49:28.326Z,21.60
2018-04-09T13:51:58.446Z,21.60
2018-04-09T13:54:27.681Z,21.60
2018-04-09T13:56:56.964Z,21.70
2018-04-09T13:59:26.281Z,21.70
2018-04-09T14:01:55.245Z,21.70
2018-04-09T14:04:24.776Z,21.70
2018-04-09T14:06:53.747Z,21.70
2018-04-09T14:09:22.937Z,21.70
2018-04-09T14:11:52.251Z,21.80
2018-04-09T14:14:22.678Z,21.80
2018-04-09T14:16:52.443Z,21.80
2018-04-09T14:19:21.811Z,21.70
2018-04-09T14:21:51.114Z,21.70
2018-04-09T14:24:20.232Z,21.60
2018-04-09T14:26:49.414Z,21.60
2018-04-09T14:29:18.590Z,21.60
2018-04-09T14:31:47.726Z,21.60
2018-04-09T14:34:16.943Z,21.70
2018-04-09T14:36:46.081Z,21.70
2018-04-09T14:39:15.350Z,21.60
2018-04-09T14:41:44.509Z,21.60
2018-04-09T14:44:13.732Z,21.60
2018-04-09T14:46:42.720Z,21.70
2018-04-09T14:49:12.030Z,21.70
2018-04-09T14:51:42.845Z,22.00
2018-04-09T14:54:12.115Z,22.00
2018-04-09T14:56:41.884Z,22.00
2018-04-09T14:59:11.000Z,22.00
2018-04-09T15:01:40.914Z,21.90
2018-04-09T15:04:09.645Z,21.80
2018-04-09T15:06:38.585Z,21.70
2018-04-09T15:09:07.778Z,21.60
2018-04-09T15:11:37.055Z,21.50
2018-04-09T15:14:06.943Z,21.40
2018-04-09T15:16:36.123Z,21.30
2018-04-09T15:19:05.272Z,21.40
2018-04-09T15:21:35.268Z,21.50
2018-04-09T15:24:04.579Z,21.50
2018-04-09T15:26:33.669Z,21.50
2018-04-09T15:29:03.078Z,21.50
2018-04-09T15:31:32.152Z,21.50
2018-04-09T15:34:01.367Z,21.50
2018-04-09T15:36:30.464Z,21.60
2018-04-09T15:38:59.417Z,21.50
2018-04-09T15:41:28.546Z,21.60
2018-04-09T15:43:57.798Z,21.60
2018-04-09T15:46:27.105Z,21.70
2018-04-09T15:48:56.223Z,21.70
2018-04-09T15:51:25.533Z,21.70
2018-04-09T15:53:54.618Z,21.70
2018-04-09T15:56:23.587Z,21.60
2018-04-09T15:58:52.542Z,21.60
2018-04-09T16:01:21.600Z,21.50
2018-04-09T16:03:50.792Z,21.40
2018-04-09T16:06:20.107Z,21.30
2018-04-09T16:08:49.375Z,21.30
2018-04-09T16:11:18.519Z,21.20
2018-04-09T16:13:47.719Z,21.20
2018-04-09T16:16:17.015Z,21.10
2018-04-09T16:18:46.199Z,21.10
2018-04-09T16:21:15.267Z,21.10
2018-04-09T16:23:44.435Z,21.10
2018-04-09T16:26:13.676Z,21.10
2018-04-09T16:28:44.429Z,21.00
2018-04-09T16:31:14.115Z,21.00
2018-04-09T16:33:43.238Z,20.90
2018-04-09T16:36:12.310Z,20.90
2018-04-09T16:38:41.524Z,20.80
2018-04-09T16:41:10.597Z,20.80
2018-04-09T16:43:39.741Z,20.80
2018-04-09T16:46:09.599Z,20.90
2018-04-09T16:48:38.620Z,20.90
2018-04-09T16:51:07.414Z,21.00
2018-04-09T16:53:36.494Z,21.00
2018-04-09T16:56:05.856Z,21.10
2018-04-09T16:58:34.791Z,21.10
2018-04-09T17:01:03.790Z,21.10
2018-04-09T17:03:32.864Z,21.10
2018-04-09T17:06:08.074Z,21.10
2018-04-09T17:08:42.806Z,21.00
2018-04-09T17:11:17.494Z,21.00
2018-04-09T17:13:52.081Z,21.00
2018-04-09T17:16:26.720Z,21.00
2018-04-09T17:19:01.297Z,21.00
2018-04-09T17:21:36.053Z,20.90
2018-04-09T17:24:10.769Z,20.90
2018-04-09T17:26:45.632Z,20.90
2018-04-09T17:29:21.229Z,20.80
2018-04-09T17:31:56.674Z,20.70
2018-04-09T17:34:31.325Z,20.70
2018-04-09T17:37:06.045Z,20.60
2018-04-09T17:39:40.803Z,20.60
2018-04-09T17:42:16.118Z,20.50
2018-04-09T17:44:50.897Z,20.40
2018-04-09T17:47:25.693Z,20.40
2018-04-09T17:50:00.430Z,20.30
2018-04-09T17:52:35.395Z,20.30
2018-04-09T17:55:10.045Z,20.20
2018-04-09T17:57:44.790Z,20.10
2018-04-09T18:00:19.557Z,20.00
2018-04-09T18:02:54.797Z,19.90
2018-04-09T18:05:29.465Z,19.80
2018-04-09T18:08:04.084Z,19.80
2018-04-09T18:10:38.673Z,19.70
2018-04-09T18:13:13.449Z,19.60
2018-04-09T18:15:48.217Z,19.50
2018-04-09T18:18:23.515Z,19.40
2018-04-09T18:20:58.231Z,19.40
2018-04-09T18:23:32.810Z,19.30
2018-04-09T18:26:07.443Z,19.30
2018-04-09T18:28:41.995Z,19.20
2018-04-09T18:31:12.599Z,19.20
2018-04-09T18:33:41.992Z,19.10
2018-04-09T18:36:11.228Z,19.10
2018-04-09T18:38:40.361Z,19.00
2018-04-09T18:41:10.229Z,18.90
2018-04-09T18:43:40.173Z,18.90
2018-04-09T18:46:09.399Z,18.90
2018-04-09T18:48:38.569Z,18.90
2018-04-09T18:51:07.692Z,18.80
2018-04-09T18:53:38.533Z,18.80
2018-04-09T18:56:07.746Z,18.70
2018-04-09T18:58:36.883Z,18.70
2018-04-09T19:01:06.141Z,18.60
2018-04-09T19:03:36.921Z,18.60
2018-04-09T19:06:06.053Z,18.60
2018-04-09T19:08:35.138Z,18.60
2018-04-09T19:11:10.105Z,18.50
2018-04-09T19:13:46.446Z,18.50
2018-04-09T19:16:21.235Z,18.50
2018-04-09T19:18:56.029Z,18.40
2018-04-09T19:21:31.394Z,18.30
2018-04-09T19:24:06.226Z,18.30
2018-04-09T19:26:40.881Z,18.30
2018-04-09T19:29:16.362Z,18.30
2018-04-09T19:31:51.022Z,18.30
2018-04-09T19:34:25.687Z,18.20
2018-04-09T19:37:05.820Z,18.20
2018-04-09T19:39:45.247Z,18.20
2018-04-09T19:42:19.843Z,18.20
2018-04-09T19:44:55.402Z,18.20
2018-04-09T19:47:26.033Z,18.20
2018-04-09T19:50:00.911Z,18.20
2018-04-09T19:52:35.964Z,18.20
2018-04-09T19:55:10.792Z,18.10
2018-04-09T19:57:46.079Z,18.10
2018-04-09T20:00:20.830Z,18.10
2018-04-09T20:02:55.494Z,18.10
2018-04-09T20:05:30.673Z,18.10
2018-04-09T20:08:06.003Z,18.10
2018-04-09T20:10:41.229Z,18.10
2018-04-09T20:13:16.648Z,18.10
2018-04-09T20:15:52.076Z,18.10
2018-04-09T20:18:28.197Z,18.00
2018-04-09T20:21:03.134Z,18.10
2018-04-09T20:23:39.342Z,18.00
2018-04-09T20:26:14.811Z,18.00
2018-04-09T20:28:49.832Z,18.00
2018-04-09T20:31:25.701Z,18.00
2018-04-09T20:34:00.640Z,17.90
2018-04-09T20:36:36.697Z,17.90
2018-04-09T20:39:06.345Z,17.90
2018-04-09T20:41:41.029Z,17.90
2018-04-09T20:44:15.862Z,17.90
2018-04-09T20:46:50.978Z,17.90
2018-04-09T20:49:25.776Z,17.90
2018-04-09T20:52:01.103Z,17.80
2018-04-09T20:54:36.683Z,17.80
2018-04-09T20:57:11.385Z,17.80
2018-04-09T20:59:46.018Z,17.80
2018-04-09T21:02:20.518Z,17.70
2018-04-09T21:04:55.223Z,17.70
2018-04-09T21:07:29.888Z,17.70
2018-04-09T21:10:03.861Z,17.60
2018-04-09T21:12:39.711Z,17.60
2018-04-09T21:15:15.058Z,17.60
2018-04-09T21:17:50.502Z,17.50
2018-04-09T21:20:25.108Z,17.50
2018-04-09T21:22:59.901Z,17.50
2018-04-09T21:25:34.451Z,17.50
2018-04-09T21:28:09.067Z,17.50
2018-04-09T21:30:43.878Z,17.40
2018-04-09T21:33:18.463Z,17.40
2018-04-09T21:35:53.089Z,17.40
2018-04-09T21:38:22.385Z,17.40
2018-04-09T21:40:57.109Z,17.40
2018-04-09T21:43:31.326Z,17.40
2018-04-09T21:46:05.948Z,17.30
2018-04-09T21:48:40.568Z,17.30
2018-04-09T21:51:15.278Z,17.30
2018-04-09T21:53:50.160Z,17.20
2018-04-09T21:56:24.791Z,17.20
2018-04-09T21:58:59.597Z,17.20
2018-04-09T22:01:34.357Z,17.20
2018-04-09T22:04:04.312Z,17.20
2018-04-09T22:06:38.828Z,17.20
2018-04-09T22:09:13.563Z,17.20
2018-04-09T22:11:48.141Z,17.20
2018-04-09T22:14:22.743Z,17.20
2018-04-09T22:16:57.401Z,17.20
2018-04-09T22:19:32.055Z,17.20
2018-04-09T22:22:06.658Z,17.20
2018-04-09T22:24:41.194Z,17.10
2018-04-09T22:27:15.937Z,17.10
2018-04-09T22:29:51.480Z,17.10
2018-04-09T22:32:26.396Z,17.10
2018-04-09T22:35:01.859Z,17.10
2018-04-09T22:37:36.485Z,17.10
2018-04-09T22:40:11.022Z,17.10
2018-04-09T22:42:45.752Z,17.10
2018-04-09T22:45:20.319Z,17.00
2018-04-09T22:47:54.872Z,17.00
2018-04-09T22:50:29.406Z,17.00
2018-04-09T22:53:04.002Z,17.00
2018-04-09T22:55:38.731Z,17.00
2018-04-09T22:58:13.248Z,16.90
2018-04-09T23:00:47.945Z,16.90
2018-04-09T23:03:22.608Z,16.90
2018-04-09T23:05:57.273Z,16.80
2018-04-09T23:08:32.584Z,16.70
2018-04-09T23:11:07.237Z,16.70
2018-04-09T23:13:41.815Z,16.70
2018-04-09T23:16:16.572Z,16.70
2018-04-09T23:18:51.139Z,16.60
2018-04-09T23:21:25.704Z,16.60
2018-04-09T23:24:00.197Z,16.50
2018-04-09T23:26:35.790Z,16.50
2018-04-09T23:29:10.419Z,16.50
2018-04-09T23:31:45.483Z,16.40
2018-04-09T23:34:14.592Z,16.40
2018-04-09T23:36:49.330Z,16.30
2018-04-09T23:39:24.041Z,16.30
2018-04-09T23:41:58.759Z,16.30
2018-04-09T23:44:33.548Z,16.30
2018-04-09T23:47:08.858Z,16.20
2018-04-09T23:49:43.802Z,16.20
2018-04-09T23:52:19.179Z,16.20
2018-04-09T23:54:53.800Z,16.10
2018-04-09T23:57:28.454Z,16.10
